sensor_id;sensor_type;location;lat;lon;timestamp;P1;durP1;ratioP1;P2;durP2;ratioP2
53549;SDS011;67273;52.914;-0.982;2023-04-01T00:00:46;0.80;;;0.80;;
53549;SDS011;67273;52.914;-0.982;2023-04-01T00:03:11;0.98;;;0.90;;
53549;SDS011;67273;52.914;-0.982;2023-04-01T00:05:37;1.05;;;0.93;;
53549;SDS011;67273;52.914;-0.982;2023-04-01T00:08:03;1.52;;;1.00;;
53549;SDS011;67273;52.914;-0.982;2023-04-01T00:10:29;1.30;;;0.98;;
53549;SDS011;67273;52.914;-0.982;2023-04-01T00:12:55;1.13;;;0.90;;
53549;SDS011;67273;52.914;-0.982;2023-04-01T00:15:22;1.05;;;0.93;;
53549;SDS011;67273;52.914;-0.982;2023-04-01T00:17:48;1.75;;;1.02;;
53549;SDS011;67273;52.914;-0.982;2023-04-01T00:20:14;1.02;;;0.82;;
53549;SDS011;67273;52.914;-0.982;2023-04-01T00:22:40;1.08;;;0.95;;
53549;SDS011;67273;52.914;-0.982;2023-04-01T00:25:06;0.90;;;0.90;;
53549;SDS011;67273;52.914;-0.982;2023-04-01T00:27:33;0.93;;;0.90;;
53549;SDS011;67273;52.914;-0.982;2023-04-01T00:29:59;1.35;;;1.00;;
53549;SDS011;67273;52.914;-0.982;2023-04-01T00:32:26;0.93;;;0.80;;
53549;SDS011;67273;52.914;-0.982;2023-04-01T00:34:51;1.35;;;0.93;;
53549;SDS011;67273;52.914;-0.982;2023-04-01T00:37:18;0.82;;;0.82;;
53549;SDS011;67273;52.914;-0.982;2023-04-01T00:39:44;1.25;;;0.90;;
53549;SDS011;67273;52.914;-0.982;2023-04-01T00:42:11;1.42;;;0.90;;
53549;SDS011;67273;52.914;-0.982;2023-04-01T00:44:37;1.25;;;1.00;;
53549;SDS011;67273;52.914;-0.982;2023-04-01T00:47:04;1.00;;;0.90;;
53549;SDS011;67273;52.914;-0.982;2023-04-01T00:49:32;0.80;;;0.80;;
53549;SDS011;67273;52.914;-0.982;2023-04-01T00:52:02;1.58;;;0.90;;
53549;SDS011;67273;52.914;-0.982;2023-04-01T00:54:30;1.10;;;1.00;;
53549;SDS011;67273;52.914;-0.982;2023-04-01T00:56:58;1.42;;;1.08;;
53549;SDS011;67273;52.914;-0.982;2023-04-01T00:59:27;1.20;;;0.77;;
53549;SDS011;67273;52.914;-0.982;2023-04-01T01:01:56;0.90;;;0.90;;
53549;SDS011;67273;52.914;-0.982;2023-04-01T01:04:22;0.80;;;0.80;;
53549;SDS011;67273;52.914;-0.982;2023-04-01T01:06:53;1.20;;;0.80;;
53549;SDS011;67273;52.914;-0.982;2023-04-01T01:09:27;0.88;;;0.75;;
53549;SDS011;67273;52.914;-0.982;2023-04-01T01:12:02;1.15;;;0.82;;
53549;SDS011;67273;52.914;-0.982;2023-04-01T01:14:39;1.02;;;0.77;;
53549;SDS011;67273;52.914;-0.982;2023-04-01T01:17:16;1.00;;;0.80;;
53549;SDS011;67273;52.914;-0.982;2023-04-01T01:19:57;2.40;;;1.08;;
53549;SDS011;67273;52.914;-0.982;2023-04-01T01:22:47;0.60;;;0.60;;
53549;SDS011;67273;52.914;-0.982;2023-04-01T01:25:25;0.82;;;0.80;;
53549;SDS011;67273;52.914;-0.982;2023-04-01T01:27:58;0.80;;;0.80;;
53549;SDS011;67273;52.914;-0.982;2023-04-01T01:30:40;1.45;;;0.90;;
53549;SDS011;67273;52.914;-0.982;2023-04-01T01:33:13;1.02;;;0.85;;
53549;SDS011;67273;52.914;-0.982;2023-04-01T01:35:52;1.05;;;0.80;;
53549;SDS011;67273;52.914;-0.982;2023-04-01T01:38:21;0.70;;;0.70;;
53549;SDS011;67273;52.914;-0.982;2023-04-01T01:41:01;1.40;;;1.00;;
53549;SDS011;67273;52.914;-0.982;2023-04-01T01:43:30;1.13;;;0.80;;
53549;SDS011;67273;52.914;-0.982;2023-04-01T01:46:03;0.88;;;0.85;;
53549;SDS011;67273;52.914;-0.982;2023-04-01T01:48:34;1.60;;;0.95;;
53549;SDS011;67273;52.914;-0.982;2023-04-01T01:51:02;1.00;;;0.90;;
53549;SDS011;67273;52.914;-0.982;2023-04-01T01:53:30;1.33;;;0.70;;
53549;SDS011;67273;52.914;-0.982;2023-04-01T01:55:55;0.80;;;0.70;;
53549;SDS011;67273;52.914;-0.982;2023-04-01T01:58:23;1.25;;;0.90;;
53549;SDS011;67273;52.914;-0.982;2023-04-01T02:00:54;1.73;;;1.00;;
53549;SDS011;67273;52.914;-0.982;2023-04-01T02:03:23;0.80;;;0.70;;
53549;SDS011;67273;52.914;-0.982;2023-04-01T02:05:52;1.25;;;0.90;;
53549;SDS011;67273;52.914;-0.982;2023-04-01T02:08:22;0.75;;;0.75;;
53549;SDS011;67273;52.914;-0.982;2023-04-01T02:10:55;0.70;;;0.70;;
53549;SDS011;67273;52.914;-0.982;2023-04-01T02:13:28;1.15;;;1.00;;
53549;SDS011;67273;52.914;-0.982;2023-04-01T02:15:59;0.80;;;0.80;;
53549;SDS011;67273;52.914;-0.982;2023-04-01T02:18:28;0.85;;;0.75;;
53549;SDS011;67273;52.914;-0.982;2023-04-01T02:20:56;0.90;;;0.90;;
53549;SDS011;67273;52.914;-0.982;2023-04-01T02:23:24;1.08;;;0.88;;
53549;SDS011;67273;52.914;-0.982;2023-04-01T02:25:52;1.08;;;0.70;;
53549;SDS011;67273;52.914;-0.982;2023-04-01T02:28:18;1.40;;;0.82;;
53549;SDS011;67273;52.914;-0.982;2023-04-01T02:30:46;1.20;;;0.80;;
53549;SDS011;67273;52.914;-0.982;2023-04-01T02:33:15;1.48;;;0.77;;
53549;SDS011;67273;52.914;-0.982;2023-04-01T02:35:41;1.45;;;1.10;;
53549;SDS011;67273;52.914;-0.982;2023-04-01T02:38:07;0.90;;;0.80;;
53549;SDS011;67273;52.914;-0.982;2023-04-01T02:40:46;0.90;;;0.80;;
53549;SDS011;67273;52.914;-0.982;2023-04-01T02:43:13;0.88;;;0.88;;
53549;SDS011;67273;52.914;-0.982;2023-04-01T02:45:39;1.70;;;1.02;;
53549;SDS011;67273;52.914;-0.982;2023-04-01T02:48:05;0.73;;;0.70;;
53549;SDS011;67273;52.914;-0.982;2023-04-01T02:50:31;0.65;;;0.65;;
53549;SDS011;67273;52.914;-0.982;2023-04-01T02:52:57;0.93;;;0.73;;
53549;SDS011;67273;52.914;-0.982;2023-04-01T02:55:22;1.13;;;0.90;;
53549;SDS011;67273;52.914;-0.982;2023-04-01T02:57:50;1.13;;;0.80;;
53549;SDS011;67273;52.914;-0.982;2023-04-01T03:00:16;0.95;;;0.60;;
53549;SDS011;67273;52.914;-0.982;2023-04-01T03:02:42;0.88;;;0.80;;
53549;SDS011;67273;52.914;-0.982;2023-04-01T03:05:09;0.75;;;0.70;;
53549;SDS011;67273;52.914;-0.982;2023-04-01T03:07:35;1.08;;;0.75;;
53549;SDS011;67273;52.914;-0.982;2023-04-01T03:10:01;0.82;;;0.82;;
53549;SDS011;67273;52.914;-0.982;2023-04-01T03:12:27;1.33;;;0.85;;
53549;SDS011;67273;52.914;-0.982;2023-04-01T03:14:54;0.90;;;0.80;;
53549;SDS011;67273;52.914;-0.982;2023-04-01T03:17:20;0.80;;;0.68;;
53549;SDS011;67273;52.914;-0.982;2023-04-01T03:19:45;0.75;;;0.70;;
53549;SDS011;67273;52.914;-0.982;2023-04-01T03:22:11;1.10;;;0.80;;
53549;SDS011;67273;52.914;-0.982;2023-04-01T03:24:37;1.02;;;0.70;;
53549;SDS011;67273;52.914;-0.982;2023-04-01T03:27:03;0.70;;;0.70;;
53549;SDS011;67273;52.914;-0.982;2023-04-01T03:29:30;2.08;;;0.98;;
53549;SDS011;67273;52.914;-0.982;2023-04-01T03:32:00;2.38;;;1.15;;
53549;SDS011;67273;52.914;-0.982;2023-04-01T03:34:28;0.70;;;0.60;;
53549;SDS011;67273;52.914;-0.982;2023-04-01T03:36:53;0.77;;;0.70;;
53549;SDS011;67273;52.914;-0.982;2023-04-01T03:39:19;0.63;;;0.57;;
53549;SDS011;67273;52.914;-0.982;2023-04-01T03:41:46;0.82;;;0.73;;
53549;SDS011;67273;52.914;-0.982;2023-04-01T03:44:12;0.60;;;0.60;;
53549;SDS011;67273;52.914;-0.982;2023-04-01T03:46:38;1.38;;;0.93;;
53549;SDS011;67273;52.914;-0.982;2023-04-01T03:49:07;1.10;;;0.77;;
53549;SDS011;67273;52.914;-0.982;2023-04-01T03:51:36;1.38;;;0.75;;
53549;SDS011;67273;52.914;-0.982;2023-04-01T03:54:02;1.20;;;0.90;;
53549;SDS011;67273;52.914;-0.982;2023-04-01T03:56:28;0.70;;;0.68;;
53549;SDS011;67273;52.914;-0.982;2023-04-01T03:58:54;1.20;;;0.80;;
53549;SDS011;67273;52.914;-0.982;2023-04-01T04:01:21;0.68;;;0.60;;
53549;SDS011;67273;52.914;-0.982;2023-04-01T04:03:50;1.30;;;0.68;;
53549;SDS011;67273;52.914;-0.982;2023-04-01T04:06:18;0.60;;;0.60;;
53549;SDS011;67273;52.914;-0.982;2023-04-01T04:08:47;1.38;;;1.02;;
53549;SDS011;67273;52.914;-0.982;2023-04-01T04:11:13;0.85;;;0.65;;
53549;SDS011;67273;52.914;-0.982;2023-04-01T04:13:41;0.80;;;0.80;;
53549;SDS011;67273;52.914;-0.982;2023-04-01T04:16:08;1.27;;;0.75;;
53549;SDS011;67273;52.914;-0.982;2023-04-01T04:18:38;1.58;;;1.00;;
53549;SDS011;67273;52.914;-0.982;2023-04-01T04:21:04;1.38;;;0.90;;
53549;SDS011;67273;52.914;-0.982;2023-04-01T04:23:32;0.57;;;0.50;;
53549;SDS011;67273;52.914;-0.982;2023-04-01T04:26:01;1.52;;;1.00;;
53549;SDS011;67273;52.914;-0.982;2023-04-01T04:28:30;1.60;;;1.00;;
53549;SDS011;67273;52.914;-0.982;2023-04-01T04:30:57;1.83;;;0.80;;
53549;SDS011;67273;52.914;-0.982;2023-04-01T04:33:23;0.88;;;0.70;;
53549;SDS011;67273;52.914;-0.982;2023-04-01T04:35:50;1.35;;;0.70;;
53549;SDS011;67273;52.914;-0.982;2023-04-01T04:38:17;1.50;;;0.80;;
53549;SDS011;67273;52.914;-0.982;2023-04-01T04:40:48;0.98;;;0.82;;
53549;SDS011;67273;52.914;-0.982;2023-04-01T04:43:19;1.35;;;0.80;;
53549;SDS011;67273;52.914;-0.982;2023-04-01T04:45:49;1.30;;;0.88;;
53549;SDS011;67273;52.914;-0.982;2023-04-01T04:48:15;1.27;;;0.68;;
53549;SDS011;67273;52.914;-0.982;2023-04-01T04:50:45;0.90;;;0.80;;
53549;SDS011;67273;52.914;-0.982;2023-04-01T04:53:15;1.05;;;0.90;;
53549;SDS011;67273;52.914;-0.982;2023-04-01T04:55:44;1.60;;;0.90;;
53549;SDS011;67273;52.914;-0.982;2023-04-01T04:58:24;1.33;;;0.70;;
53549;SDS011;67273;52.914;-0.982;2023-04-01T05:00:50;0.65;;;0.60;;
53549;SDS011;67273;52.914;-0.982;2023-04-01T05:03:20;0.40;;;0.40;;
53549;SDS011;67273;52.914;-0.982;2023-04-01T05:05:49;0.77;;;0.70;;
53549;SDS011;67273;52.914;-0.982;2023-04-01T05:08:17;1.15;;;0.68;;
53549;SDS011;67273;52.914;-0.982;2023-04-01T05:10:44;1.02;;;0.70;;
53549;SDS011;67273;52.914;-0.982;2023-04-01T05:13:12;0.85;;;0.60;;
53549;SDS011;67273;52.914;-0.982;2023-04-01T05:15:48;1.23;;;0.68;;
53549;SDS011;67273;52.914;-0.982;2023-04-01T05:18:16;1.60;;;0.80;;
53549;SDS011;67273;52.914;-0.982;2023-04-01T05:20:45;1.48;;;0.70;;
53549;SDS011;67273;52.914;-0.982;2023-04-01T05:23:11;0.70;;;0.70;;
53549;SDS011;67273;52.914;-0.982;2023-04-01T05:25:37;1.35;;;0.80;;
53549;SDS011;67273;52.914;-0.982;2023-04-01T05:28:04;1.25;;;0.70;;
53549;SDS011;67273;52.914;-0.982;2023-04-01T05:30:32;0.85;;;0.65;;
53549;SDS011;67273;52.914;-0.982;2023-04-01T05:33:22;0.77;;;0.60;;
53549;SDS011;67273;52.914;-0.982;2023-04-01T05:35:47;1.55;;;0.90;;
53549;SDS011;67273;52.914;-0.982;2023-04-01T05:38:13;1.35;;;0.93;;
53549;SDS011;67273;52.914;-0.982;2023-04-01T05:40:39;0.80;;;0.65;;
53549;SDS011;67273;52.914;-0.982;2023-04-01T05:43:05;0.98;;;0.73;;
53549;SDS011;67273;52.914;-0.982;2023-04-01T05:45:31;0.73;;;0.65;;
53549;SDS011;67273;52.914;-0.982;2023-04-01T05:48:09;1.17;;;0.80;;
53549;SDS011;67273;52.914;-0.982;2023-04-01T05:50:40;1.17;;;0.65;;
53549;SDS011;67273;52.914;-0.982;2023-04-01T05:53:07;0.60;;;0.60;;
53549;SDS011;67273;52.914;-0.982;2023-04-01T05:55:34;1.13;;;0.73;;
53549;SDS011;67273;52.914;-0.982;2023-04-01T05:58:01;0.70;;;0.70;;
53549;SDS011;67273;52.914;-0.982;2023-04-01T06:00:27;0.85;;;0.70;;
53549;SDS011;67273;52.914;-0.982;2023-04-01T06:02:54;1.15;;;0.60;;
53549;SDS011;67273;52.914;-0.982;2023-04-01T06:05:21;1.60;;;0.70;;
53549;SDS011;67273;52.914;-0.982;2023-04-01T06:07:50;1.20;;;0.70;;
53549;SDS011;67273;52.914;-0.982;2023-04-01T06:10:20;0.98;;;0.70;;
53549;SDS011;67273;52.914;-0.982;2023-04-01T06:12:52;0.77;;;0.70;;
53549;SDS011;67273;52.914;-0.982;2023-04-01T06:15:30;1.65;;;0.63;;
53549;SDS011;67273;52.914;-0.982;2023-04-01T06:18:09;0.57;;;0.50;;
53549;SDS011;67273;52.914;-0.982;2023-04-01T06:21:00;0.70;;;0.50;;
53549;SDS011;67273;52.914;-0.982;2023-04-01T06:23:56;0.63;;;0.60;;
53549;SDS011;67273;52.914;-0.982;2023-04-01T06:26:30;0.98;;;0.60;;
53549;SDS011;67273;52.914;-0.982;2023-04-01T06:29:08;2.22;;;0.77;;
53549;SDS011;67273;52.914;-0.982;2023-04-01T06:32:01;0.73;;;0.70;;
53549;SDS011;67273;52.914;-0.982;2023-04-01T06:37:45;1.05;;;0.70;;
53549;SDS011;67273;52.914;-0.982;2023-04-01T06:40:44;1.08;;;0.70;;
53549;SDS011;67273;52.914;-0.982;2023-04-01T06:43:34;1.00;;;0.52;;
53549;SDS011;67273;52.914;-0.982;2023-04-01T06:46:32;0.75;;;0.70;;
53549;SDS011;67273;52.914;-0.982;2023-04-01T06:49:28;0.60;;;0.60;;
53549;SDS011;67273;52.914;-0.982;2023-04-01T06:52:34;0.55;;;0.50;;
53549;SDS011;67273;52.914;-0.982;2023-04-01T06:55:29;0.68;;;0.50;;
53549;SDS011;67273;52.914;-0.982;2023-04-01T06:58:27;0.43;;;0.43;;
53549;SDS011;67273;52.914;-0.982;2023-04-01T07:00:59;1.60;;;0.68;;
53549;SDS011;67273;52.914;-0.982;2023-04-01T07:03:30;0.93;;;0.60;;
53549;SDS011;67273;52.914;-0.982;2023-04-01T07:06:01;0.75;;;0.60;;
53549;SDS011;67273;52.914;-0.982;2023-04-01T07:08:31;0.68;;;0.55;;
53549;SDS011;67273;52.914;-0.982;2023-04-01T07:11:02;0.60;;;0.60;;
53549;SDS011;67273;52.914;-0.982;2023-04-01T07:13:51;1.63;;;0.70;;
53549;SDS011;67273;52.914;-0.982;2023-04-01T07:16:21;1.15;;;0.75;;
53549;SDS011;67273;52.914;-0.982;2023-04-01T07:18:53;0.57;;;0.55;;
53549;SDS011;67273;52.914;-0.982;2023-04-01T07:21:36;1.98;;;0.75;;
53549;SDS011;67273;52.914;-0.982;2023-04-01T07:24:17;1.45;;;0.82;;
53549;SDS011;67273;52.914;-0.982;2023-04-01T07:27:00;2.25;;;0.70;;
53549;SDS011;67273;52.914;-0.982;2023-04-01T07:29:31;2.70;;;0.90;;
53549;SDS011;67273;52.914;-0.982;2023-04-01T07:32:04;2.63;;;1.00;;
53549;SDS011;67273;52.914;-0.982;2023-04-01T07:34:35;2.78;;;0.93;;
53549;SDS011;67273;52.914;-0.982;2023-04-01T07:37:13;3.25;;;0.95;;
53549;SDS011;67273;52.914;-0.982;2023-04-01T07:39:45;2.88;;;0.90;;
53549;SDS011;67273;52.914;-0.982;2023-04-01T07:42:27;1.90;;;0.93;;
53549;SDS011;67273;52.914;-0.982;2023-04-01T07:45:01;2.63;;;0.80;;
53549;SDS011;67273;52.914;-0.982;2023-04-01T07:47:43;1.92;;;0.77;;
53549;SDS011;67273;52.914;-0.982;2023-04-01T07:50:20;1.95;;;0.90;;
53549;SDS011;67273;52.914;-0.982;2023-04-01T07:52:52;1.02;;;0.82;;
53549;SDS011;67273;52.914;-0.982;2023-04-01T07:55:30;1.45;;;0.90;;
53549;SDS011;67273;52.914;-0.982;2023-04-01T07:58:04;1.88;;;0.80;;
53549;SDS011;67273;52.914;-0.982;2023-04-01T08:00:44;1.27;;;0.80;;
53549;SDS011;67273;52.914;-0.982;2023-04-01T08:03:26;2.45;;;0.80;;
53549;SDS011;67273;52.914;-0.982;2023-04-01T08:06:00;1.40;;;0.90;;
53549;SDS011;67273;52.914;-0.982;2023-04-01T08:08:34;3.15;;;1.00;;
53549;SDS011;67273;52.914;-0.982;2023-04-01T08:11:31;2.08;;;1.20;;
53549;SDS011;67273;52.914;-0.982;2023-04-01T08:14:26;1.63;;;1.02;;
53549;SDS011;67273;52.914;-0.982;2023-04-01T08:17:22;1.35;;;0.70;;
53549;SDS011;67273;52.914;-0.982;2023-04-01T08:19:59;1.35;;;0.90;;
53549;SDS011;67273;52.914;-0.982;2023-04-01T08:22:41;2.17;;;0.77;;
53549;SDS011;67273;52.914;-0.982;2023-04-01T08:25:18;1.08;;;0.65;;
53549;SDS011;67273;52.914;-0.982;2023-04-01T08:27:48;1.98;;;0.77;;
53549;SDS011;67273;52.914;-0.982;2023-04-01T08:30:19;0.52;;;0.52;;
53549;SDS011;67273;52.914;-0.982;2023-04-01T08:32:49;1.00;;;0.90;;
53549;SDS011;67273;52.914;-0.982;2023-04-01T08:35:25;1.77;;;0.90;;
53549;SDS011;67273;52.914;-0.982;2023-04-01T08:37:55;9.30;;;1.15;;
53549;SDS011;67273;52.914;-0.982;2023-04-01T08:40:33;7.45;;;1.30;;
53549;SDS011;67273;52.914;-0.982;2023-04-01T08:43:08;6.25;;;1.13;;
53549;SDS011;67273;52.914;-0.982;2023-04-01T08:45:53;3.20;;;1.05;;
53549;SDS011;67273;52.914;-0.982;2023-04-01T08:48:50;3.90;;;1.08;;
53549;SDS011;67273;52.914;-0.982;2023-04-01T08:51:42;2.67;;;0.80;;
53549;SDS011;67273;52.914;-0.982;2023-04-01T08:54:26;2.63;;;1.00;;
53549;SDS011;67273;52.914;-0.982;2023-04-01T08:57:08;3.13;;;1.00;;
53549;SDS011;67273;52.914;-0.982;2023-04-01T09:00:07;3.72;;;1.00;;
53549;SDS011;67273;52.914;-0.982;2023-04-01T09:03:08;3.22;;;0.80;;
53549;SDS011;67273;52.914;-0.982;2023-04-01T09:05:53;2.67;;;1.05;;
53549;SDS011;67273;52.914;-0.982;2023-04-01T09:08:38;1.73;;;0.75;;
53549;SDS011;67273;52.914;-0.982;2023-04-01T09:11:20;2.20;;;0.90;;
53549;SDS011;67273;52.914;-0.982;2023-04-01T09:14:32;2.50;;;1.00;;
53549;SDS011;67273;52.914;-0.982;2023-04-01T09:17:29;3.17;;;0.93;;
53549;SDS011;67273;52.914;-0.982;2023-04-01T09:23:23;3.55;;;1.10;;
53549;SDS011;67273;52.914;-0.982;2023-04-01T09:26:01;4.80;;;1.30;;
53549;SDS011;67273;52.914;-0.982;2023-04-01T09:28:41;3.33;;;1.20;;
53549;SDS011;67273;52.914;-0.982;2023-04-01T09:37:47;3.45;;;1.00;;
53549;SDS011;67273;52.914;-0.982;2023-04-01T09:40:26;3.65;;;1.30;;
53549;SDS011;67273;52.914;-0.982;2023-04-01T09:46:06;3.67;;;1.33;;
53549;SDS011;67273;52.914;-0.982;2023-04-01T09:51:58;1.65;;;0.93;;
53549;SDS011;67273;52.914;-0.982;2023-04-01T09:54:44;3.63;;;1.20;;
53549;SDS011;67273;52.914;-0.982;2023-04-01T09:58:04;6.55;;;1.17;;
53549;SDS011;67273;52.914;-0.982;2023-04-01T10:01:26;5.40;;;1.23;;
53549;SDS011;67273;52.914;-0.982;2023-04-01T10:04:24;4.68;;;1.40;;
53549;SDS011;67273;52.914;-0.982;2023-04-01T10:07:18;2.33;;;1.02;;
53549;SDS011;67273;52.914;-0.982;2023-04-01T10:12:57;2.17;;;1.13;;
53549;SDS011;67273;52.914;-0.982;2023-04-01T10:15:50;1.70;;;0.95;;
53549;SDS011;67273;52.914;-0.982;2023-04-01T10:24:53;1.60;;;1.00;;
53549;SDS011;67273;52.914;-0.982;2023-04-01T10:27:57;2.40;;;1.15;;
53549;SDS011;67273;52.914;-0.982;2023-04-01T10:31:20;5.03;;;1.40;;
53549;SDS011;67273;52.914;-0.982;2023-04-01T10:34:34;5.15;;;0.90;;
53549;SDS011;67273;52.914;-0.982;2023-04-01T10:37:32;3.45;;;1.10;;
53549;SDS011;67273;52.914;-0.982;2023-04-01T10:43:50;2.55;;;1.00;;
53549;SDS011;67273;52.914;-0.982;2023-04-01T10:47:22;2.15;;;1.10;;
53549;SDS011;67273;52.914;-0.982;2023-04-01T10:53:30;2.85;;;1.00;;
53549;SDS011;67273;52.914;-0.982;2023-04-01T10:59:36;3.10;;;0.90;;
53549;SDS011;67273;52.914;-0.982;2023-04-01T11:03:08;2.38;;;1.25;;
53549;SDS011;67273;52.914;-0.982;2023-04-01T11:06:21;1.88;;;0.98;;
53549;SDS011;67273;52.914;-0.982;2023-04-01T11:22:01;3.65;;;1.00;;
53549;SDS011;67273;52.914;-0.982;2023-04-01T11:25:00;1.60;;;0.90;;
53549;SDS011;67273;52.914;-0.982;2023-04-01T11:28:16;1.58;;;0.75;;
53549;SDS011;67273;52.914;-0.982;2023-04-01T11:31:00;1.60;;;1.02;;
53549;SDS011;67273;52.914;-0.982;2023-04-01T11:33:38;2.13;;;0.90;;
53549;SDS011;67273;52.914;-0.982;2023-04-01T11:36:13;1.85;;;1.00;;
53549;SDS011;67273;52.914;-0.982;2023-04-01T11:38:58;1.55;;;0.82;;
53549;SDS011;67273;52.914;-0.982;2023-04-01T11:41:56;1.67;;;0.93;;
53549;SDS011;67273;52.914;-0.982;2023-04-01T11:45:01;1.10;;;1.00;;
53549;SDS011;67273;52.914;-0.982;2023-04-01T11:47:52;4.95;;;0.88;;
53549;SDS011;67273;52.914;-0.982;2023-04-01T11:50:37;0.80;;;0.60;;
53549;SDS011;67273;52.914;-0.982;2023-04-01T11:53:18;1.40;;;1.00;;
53549;SDS011;67273;52.914;-0.982;2023-04-01T12:04:10;2.00;;;0.80;;
53549;SDS011;67273;52.914;-0.982;2023-04-01T12:06:51;1.33;;;1.00;;
53549;SDS011;67273;52.914;-0.982;2023-04-01T12:09:29;1.52;;;1.00;;
53549;SDS011;67273;52.914;-0.982;2023-04-01T12:12:10;2.38;;;1.20;;
53549;SDS011;67273;52.914;-0.982;2023-04-01T12:14:44;5.18;;;1.10;;
53549;SDS011;67273;52.914;-0.982;2023-04-01T12:17:24;6.95;;;1.23;;
53549;SDS011;67273;52.914;-0.982;2023-04-01T12:19:57;6.90;;;1.20;;
53549;SDS011;67273;52.914;-0.982;2023-04-01T12:22:40;4.38;;;1.40;;
53549;SDS011;67273;52.914;-0.982;2023-04-01T12:25:19;3.92;;;1.38;;
53549;SDS011;67273;52.914;-0.982;2023-04-01T12:27:58;3.58;;;0.90;;
53549;SDS011;67273;52.914;-0.982;2023-04-01T12:30:35;3.17;;;1.40;;
53549;SDS011;67273;52.914;-0.982;2023-04-01T12:33:28;2.65;;;1.40;;
53549;SDS011;67273;52.914;-0.982;2023-04-01T12:36:10;5.43;;;1.40;;
53549;SDS011;67273;52.914;-0.982;2023-04-01T12:38:47;1.55;;;1.20;;
53549;SDS011;67273;52.914;-0.982;2023-04-01T12:41:24;3.47;;;1.40;;
53549;SDS011;67273;52.914;-0.982;2023-04-01T12:47:00;1.90;;;1.10;;
53549;SDS011;67273;52.914;-0.982;2023-04-01T12:49:54;2.47;;;1.20;;
53549;SDS011;67273;52.914;-0.982;2023-04-01T12:52:26;4.30;;;1.30;;
53549;SDS011;67273;52.914;-0.982;2023-04-01T12:55:23;5.10;;;1.48;;
53549;SDS011;67273;52.914;-0.982;2023-04-01T13:04:24;9.32;;;1.60;;
53549;SDS011;67273;52.914;-0.982;2023-04-01T13:07:15;4.97;;;1.70;;
53549;SDS011;67273;52.914;-0.982;2023-04-01T13:09:57;4.35;;;1.33;;
53549;SDS011;67273;52.914;-0.982;2023-04-01T13:12:45;5.13;;;1.23;;
53549;SDS011;67273;52.914;-0.982;2023-04-01T13:15:24;4.90;;;1.55;;
53549;SDS011;67273;52.914;-0.982;2023-04-01T13:17:54;3.38;;;1.35;;
53549;SDS011;67273;52.914;-0.982;2023-04-01T13:20:32;2.97;;;1.30;;
53549;SDS011;67273;52.914;-0.982;2023-04-01T13:23:08;2.55;;;1.13;;
53549;SDS011;67273;52.914;-0.982;2023-04-01T13:25:41;3.45;;;1.20;;
53549;SDS011;67273;52.914;-0.982;2023-04-01T13:28:18;3.10;;;1.30;;
53549;SDS011;67273;52.914;-0.982;2023-04-01T13:30:49;3.95;;;1.48;;
53549;SDS011;67273;52.914;-0.982;2023-04-01T13:33:27;3.40;;;1.30;;
53549;SDS011;67273;52.914;-0.982;2023-04-01T13:36:08;7.90;;;1.58;;
53549;SDS011;67273;52.914;-0.982;2023-04-01T13:41:57;4.22;;;1.27;;
53549;SDS011;67273;52.914;-0.982;2023-04-01T13:44:41;3.45;;;1.15;;
53549;SDS011;67273;52.914;-0.982;2023-04-01T13:47:24;2.22;;;1.00;;
53549;SDS011;67273;52.914;-0.982;2023-04-01T13:50:26;2.53;;;1.13;;
53549;SDS011;67273;52.914;-0.982;2023-04-01T13:56:04;2.58;;;1.50;;
53549;SDS011;67273;52.914;-0.982;2023-04-01T13:58:39;4.07;;;1.80;;
53549;SDS011;67273;52.914;-0.982;2023-04-01T14:01:15;6.82;;;1.63;;
53549;SDS011;67273;52.914;-0.982;2023-04-01T14:04:03;4.65;;;1.70;;
53549;SDS011;67273;52.914;-0.982;2023-04-01T14:06:48;4.53;;;1.60;;
53549;SDS011;67273;52.914;-0.982;2023-04-01T14:09:42;5.03;;;1.73;;
53549;SDS011;67273;52.914;-0.982;2023-04-01T14:12:28;3.58;;;1.70;;
53549;SDS011;67273;52.914;-0.982;2023-04-01T14:15:07;2.67;;;1.60;;
53549;SDS011;67273;52.914;-0.982;2023-04-01T14:20:51;3.20;;;1.52;;
53549;SDS011;67273;52.914;-0.982;2023-04-01T14:26:41;2.63;;;1.40;;
53549;SDS011;67273;52.914;-0.982;2023-04-01T14:29:22;2.22;;;1.60;;
53549;SDS011;67273;52.914;-0.982;2023-04-01T14:31:55;3.30;;;1.60;;
53549;SDS011;67273;52.914;-0.982;2023-04-01T14:34:34;5.35;;;1.70;;
53549;SDS011;67273;52.914;-0.982;2023-04-01T14:37:15;2.88;;;1.50;;
53549;SDS011;67273;52.914;-0.982;2023-04-01T14:40:10;3.53;;;1.63;;
53549;SDS011;67273;52.914;-0.982;2023-04-01T14:42:53;4.50;;;1.58;;
53549;SDS011;67273;52.914;-0.982;2023-04-01T14:45:36;4.47;;;1.20;;
53549;SDS011;67273;52.914;-0.982;2023-04-01T14:48:25;3.88;;;1.73;;
53549;SDS011;67273;52.914;-0.982;2023-04-01T14:50:56;2.65;;;1.40;;
53549;SDS011;67273;52.914;-0.982;2023-04-01T14:53:29;3.55;;;1.63;;
53549;SDS011;67273;52.914;-0.982;2023-04-01T14:55:59;2.47;;;1.48;;
53549;SDS011;67273;52.914;-0.982;2023-04-01T14:58:40;2.35;;;1.20;;
53549;SDS011;67273;52.914;-0.982;2023-04-01T15:01:25;2.28;;;1.40;;
53549;SDS011;67273;52.914;-0.982;2023-04-01T15:04:10;2.60;;;1.35;;
53549;SDS011;67273;52.914;-0.982;2023-04-01T15:07:06;3.95;;;1.48;;
53549;SDS011;67273;52.914;-0.982;2023-04-01T15:09:48;2.10;;;1.30;;
53549;SDS011;67273;52.914;-0.982;2023-04-01T15:12:23;2.10;;;1.30;;
53549;SDS011;67273;52.914;-0.982;2023-04-01T15:15:02;1.48;;;1.35;;
53549;SDS011;67273;52.914;-0.982;2023-04-01T15:20:48;2.00;;;1.20;;
53549;SDS011;67273;52.914;-0.982;2023-04-01T15:23:30;2.33;;;1.30;;
53549;SDS011;67273;52.914;-0.982;2023-04-01T15:29:08;3.22;;;1.20;;
53549;SDS011;67273;52.914;-0.982;2023-04-01T15:31:51;1.90;;;1.40;;
53549;SDS011;67273;52.914;-0.982;2023-04-01T15:34:26;1.98;;;1.50;;
53549;SDS011;67273;52.914;-0.982;2023-04-01T15:36:59;1.85;;;1.20;;
53549;SDS011;67273;52.914;-0.982;2023-04-01T15:39:34;2.00;;;1.23;;
53549;SDS011;67273;52.914;-0.982;2023-04-01T15:42:13;2.28;;;1.30;;
53549;SDS011;67273;52.914;-0.982;2023-04-01T15:44:52;1.35;;;1.00;;
53549;SDS011;67273;52.914;-0.982;2023-04-01T15:47:33;2.20;;;1.20;;
53549;SDS011;67273;52.914;-0.982;2023-04-01T15:50:11;2.25;;;1.30;;
53549;SDS011;67273;52.914;-0.982;2023-04-01T15:53:11;1.60;;;1.20;;
53549;SDS011;67273;52.914;-0.982;2023-04-01T15:55:43;2.25;;;1.50;;
53549;SDS011;67273;52.914;-0.982;2023-04-01T15:58:22;1.15;;;1.10;;
53549;SDS011;67273;52.914;-0.982;2023-04-01T16:01:03;2.25;;;1.17;;
53549;SDS011;67273;52.914;-0.982;2023-04-01T16:03:41;1.77;;;1.35;;
53549;SDS011;67273;52.914;-0.982;2023-04-01T16:09:19;1.33;;;1.15;;
53549;SDS011;67273;52.914;-0.982;2023-04-01T16:12:01;1.45;;;1.17;;
53549;SDS011;67273;52.914;-0.982;2023-04-01T16:14:36;1.55;;;1.20;;
53549;SDS011;67273;52.914;-0.982;2023-04-01T16:17:17;1.38;;;1.10;;
53549;SDS011;67273;52.914;-0.982;2023-04-01T16:19:57;1.70;;;1.30;;
53549;SDS011;67273;52.914;-0.982;2023-04-01T16:22:28;1.33;;;1.02;;
53549;SDS011;67273;52.914;-0.982;2023-04-01T16:25:01;2.03;;;1.20;;
53549;SDS011;67273;52.914;-0.982;2023-04-01T16:27:44;1.98;;;1.27;;
53549;SDS011;67273;52.914;-0.982;2023-04-01T16:30:35;2.05;;;1.08;;
53549;SDS011;67273;52.914;-0.982;2023-04-01T16:33:03;2.53;;;1.15;;
53549;SDS011;67273;52.914;-0.982;2023-04-01T16:35:41;1.00;;;0.90;;
53549;SDS011;67273;52.914;-0.982;2023-04-01T16:38:13;1.55;;;1.10;;
53549;SDS011;67273;52.914;-0.982;2023-04-01T16:40:44;1.05;;;1.00;;
53549;SDS011;67273;52.914;-0.982;2023-04-01T16:43:20;2.63;;;1.30;;
53549;SDS011;67273;52.914;-0.982;2023-04-01T16:45:56;1.55;;;1.08;;
53549;SDS011;67273;52.914;-0.982;2023-04-01T16:48:35;1.10;;;0.98;;
53549;SDS011;67273;52.914;-0.982;2023-04-01T16:51:18;1.90;;;1.00;;
53549;SDS011;67273;52.914;-0.982;2023-04-01T16:53:47;1.27;;;1.10;;
53549;SDS011;67273;52.914;-0.982;2023-04-01T16:56:16;0.98;;;0.90;;
53549;SDS011;67273;52.914;-0.982;2023-04-01T16:58:56;1.25;;;1.00;;
53549;SDS011;67273;52.914;-0.982;2023-04-01T17:01:29;1.30;;;0.95;;